»·PEaware :: ASA751 KMRY-KLAS

ASA751 :: KMRY-KLAS

FLIGHT INFORMATION

Flight Status: Arrived
Operator:
Alaska Airlines
More flights by this operator :: More flights under this callsign
Pilot: Ewen S. (18928)
Aircraft: DEHAVILLAND DASH 8 400
(DH8D)
More flights by this aircraft type
Origin: KMRY Monterey Peninsula
United States
Destination: KLAS McCarran Intl
United States
More flights between these airports :: More routes between these airports
Route: +MRY5 SNS PXN NTELL BIH LIDAT J92 BTY V105 LAS
File this flight plan on PilotEdge
Remarks:
Altitude:
(Current/Filed)
25,000ft
Speed:
(Current/Filed)
320kts
Departed: 01-Apr-20 01:49 PM
Arrived: 01-Apr-20 03:09 PM
Distance/Time
Traveled:
325nm/1:20
Distance/Time
To Go:
Arrived

Flight Plot

Page will automatically refresh every two minutes.

Flight plan parsing failed; only flown route is shown


Map Options




Map Legend


Flown Route
Filed Route
Departure Airport
Arrival Airport
Navaid (VOR, NDB)
Fix

Horizontal Profiles

Position Reports

Time Latitude Longitude Heading Altitude Ground
Speed
01-Apr-20 13:14 36.587231 -121.849239 0 263ft 0kts
01-Apr-20 13:15 36.587231 -121.849239 232 263ft 0kts
01-Apr-20 13:16 36.587231 -121.849239 232 263ft 0kts
01-Apr-20 13:17 36.587231 -121.849239 232 263ft 0kts
01-Apr-20 13:18 36.587231 -121.849239 232 263ft 0kts
01-Apr-20 13:19 36.587231 -121.849239 232 263ft 0kts
01-Apr-20 13:20 36.587231 -121.849239 232 263ft 0kts
01-Apr-20 13:21 36.587231 -121.849239 232 263ft 0kts
01-Apr-20 13:22 36.587231 -121.849239 232 263ft 0kts
01-Apr-20 13:23 36.587231 -121.849239 232 263ft 0kts
01-Apr-20 13:24 36.587231 -121.849239 232 263ft 0kts
01-Apr-20 13:25 36.587231 -121.849239 232 263ft 0kts
01-Apr-20 13:26 36.587230 -121.849240 233 263ft 0kts
01-Apr-20 13:27 36.587230 -121.849240 233 263ft 0kts
01-Apr-20 13:28 36.587230 -121.849240 233 263ft 0kts
01-Apr-20 13:29 36.587230 -121.849240 233 263ft 0kts
01-Apr-20 13:30 36.587230 -121.849240 233 263ft 0kts
01-Apr-20 13:31 36.587230 -121.849240 233 263ft 0kts
01-Apr-20 13:32 36.587230 -121.849240 233 263ft 0kts
01-Apr-20 13:33 36.587230 -121.849240 233 263ft 0kts
01-Apr-20 13:34 36.587230 -121.849240 233 263ft 0kts
01-Apr-20 13:35 36.587230 -121.849240 233 263ft 0kts
01-Apr-20 13:36 36.587230 -121.849240 233 263ft 0kts
01-Apr-20 13:37 36.587230 -121.849240 233 263ft 0kts
01-Apr-20 13:38 36.587230 -121.849240 233 263ft 0kts
01-Apr-20 13:39 36.587276 -121.849163 233 263ft 1kts
01-Apr-20 13:40 36.587419 -121.849007 52 263ft 0kts
01-Apr-20 13:41 36.587429 -121.849017 159 263ft 0kts
01-Apr-20 13:42 36.587429 -121.849017 159 263ft 0kts
01-Apr-20 13:43 36.587136 -121.847290 112 263ft 14kts
01-Apr-20 13:44 36.585409 -121.842617 110 263ft 12kts
01-Apr-20 13:45 36.583350 -121.836472 113 263ft 18kts
01-Apr-20 13:46 36.582840 -121.834829 95 263ft 0kts
01-Apr-20 13:47 36.582775 -121.834063 86 263ft 6kts
01-Apr-20 13:48 36.584219 -121.836110 290 264ft 76kts
01-Apr-20 13:49 36.597491 -121.883855 278 1974ft 173kts
01-Apr-20 13:50 36.598217 -121.944545 295 5067ft 178kts
01-Apr-20 13:51 36.642132 -121.969984 338 7475ft 209kts
01-Apr-20 13:52 36.706092 -121.989951 342 6851ft 209kts
01-Apr-20 13:53 36.731224 -121.956781 91 6627ft 160kts
01-Apr-20 13:54 36.731246 -121.893360 85 8768ft 197kts
01-Apr-20 13:55 36.730704 -121.821884 87 11434ft 218kts
01-Apr-20 13:56 36.730066 -121.743841 82 13680ft 230kts
01-Apr-20 13:57 36.746032 -121.665119 69 15890ft 237kts
01-Apr-20 13:58 36.763306 -121.582868 70 17894ft 248kts
01-Apr-20 13:59 36.780994 -121.496854 70 19688ft 255kts
01-Apr-20 14:00 36.798971 -121.409081 70 21231ft 262kts
01-Apr-20 14:01 36.817441 -121.318524 71 22582ft 268kts
01-Apr-20 14:02 36.836347 -121.225462 71 23752ft 273kts
01-Apr-20 14:03 36.854723 -121.134618 71 24740ft 277kts
01-Apr-20 14:04 36.874821 -121.035114 71 25078ft 308kts
01-Apr-20 14:06 36.897071 -120.923863 72 25069ft 345kts
01-Apr-20 14:07 36.921382 -120.801629 72 25050ft 373kts
01-Apr-20 14:08 36.947160 -120.671404 72 25035ft 391kts
01-Apr-20 14:09 36.973620 -120.536770 73 25034ft 401kts
01-Apr-20 14:10 37.000501 -120.399095 73 25033ft 407kts
01-Apr-20 14:11 37.025875 -120.268359 73 25020ft 409kts
01-Apr-20 14:12 37.049899 -120.143848 73 25014ft 410kts
01-Apr-20 14:13 37.076831 -120.003338 73 25017ft 411kts
01-Apr-20 14:14 37.102359 -119.869224 74 25014ft 412kts
01-Apr-20 14:15 37.129077 -119.727968 74 24993ft 413kts
01-Apr-20 14:16 37.155766 -119.585813 74 24991ft 413kts
01-Apr-20 14:17 37.181482 -119.447896 74 24989ft 413kts
01-Apr-20 14:18 37.203193 -119.330708 74 24981ft 414kts
01-Apr-20 14:19 37.224871 -119.212968 74 24977ft 413kts
01-Apr-20 14:20 37.250032 -119.075459 75 24975ft 412kts
01-Apr-20 14:21 37.275671 -118.934343 75 24925ft 413kts
01-Apr-20 14:22 37.301184 -118.792880 75 24844ft 414kts
01-Apr-20 14:23 37.326618 -118.650802 75 24837ft 413kts
01-Apr-20 14:23 37.347643 -118.532882 75 24839ft 413kts
01-Apr-20 14:25 37.375425 -118.366616 80 24841ft 414kts
01-Apr-20 14:26 37.383983 -118.233973 85 24809ft 416kts
01-Apr-20 14:26 37.390337 -118.112441 85 24797ft 416kts
01-Apr-20 14:27 37.397722 -117.967098 85 24798ft 416kts
01-Apr-20 14:29 37.406106 -117.796746 86 24801ft 416kts
01-Apr-20 14:29 37.411976 -117.675417 86 24810ft 416kts
01-Apr-20 14:30 37.418807 -117.530385 86 24811ft 416kts
01-Apr-20 14:32 37.425569 -117.360194 94 24801ft 416kts
01-Apr-20 14:32 37.391589 -117.253580 134 24807ft 402kts
01-Apr-20 14:33 37.303720 -117.170978 150 24806ft 393kts
01-Apr-20 14:34 37.213443 -117.093946 151 24799ft 393kts
01-Apr-20 14:35 37.124162 -117.018499 151 24778ft 393kts
01-Apr-20 14:36 37.032829 -116.941705 151 24442ft 399kts
01-Apr-20 14:37 36.941718 -116.865172 151 23446ft 390kts
01-Apr-20 14:38 36.853322 -116.791101 150 22482ft 387kts
01-Apr-20 14:39 36.764164 -116.714007 146 21512ft 389kts
01-Apr-20 14:40 36.678945 -116.629885 145 20556ft 392kts
01-Apr-20 14:41 36.591639 -116.545285 146 19592ft 395kts
01-Apr-20 14:42 36.503837 -116.460837 145 18645ft 401kts
01-Apr-20 14:43 36.422560 -116.382839 145 17785ft 406kts
01-Apr-20 14:44 36.332893 -116.297231 145 16820ft 410kts
01-Apr-20 14:45 36.242225 -116.210989 145 15830ft 410kts
01-Apr-20 14:46 36.151257 -116.124714 145 14839ft 410kts
01-Apr-20 14:47 36.061594 -116.040346 144 14031ft 389kts
01-Apr-20 14:48 36.033733 -115.923869 86 14025ft 364kts
01-Apr-20 14:49 36.041512 -115.801498 85 14027ft 347kts
01-Apr-20 14:50 36.048959 -115.681750 85 13043ft 346kts
01-Apr-20 14:51 36.055895 -115.568141 85 11796ft 329kts
01-Apr-20 14:52 36.062584 -115.456845 86 10533ft 317kts
01-Apr-20 14:53 36.050731 -115.353924 100 9282ft 294kts
01-Apr-20 14:54 36.038220 -115.260437 101 8042ft 260kts
01-Apr-20 14:55 36.027791 -115.177055 101 8020ft 229kts
01-Apr-20 14:56 36.031666 -115.106481 28 7979ft 210kts
01-Apr-20 14:57 36.089454 -115.077527 21 6838ft 246kts
01-Apr-20 14:58 36.158346 -115.044330 21 5568ft 265kts
01-Apr-20 14:59 36.218972 -115.015057 21 5532ft 212kts
01-Apr-20 15:00 36.272478 -114.989217 21 5556ft 207kts
01-Apr-20 15:01 36.323184 -114.981368 309 5115ft 194kts
01-Apr-20 15:02 36.322904 -115.035164 191 5300ft 194kts
01-Apr-20 15:03 36.267312 -115.055861 209 5354ft 218kts
01-Apr-20 15:04 36.219836 -115.083740 207 4635ft 169kts
01-Apr-20 15:05 36.176426 -115.107810 204 4387ft 166kts
01-Apr-20 15:06 36.140378 -115.129286 205 3238ft 135kts
01-Apr-20 15:07 36.107277 -115.148459 203 2451ft 123kts
01-Apr-20 15:08 36.088034 -115.159284 154 2149ft 13kts
01-Apr-20 15:09 36.087198 -115.158156 156 2149ft 7kts
01-Apr-20 15:10 36.083840 -115.156264 153 2149ft 10kts
01-Apr-20 15:11 36.080854 -115.154546 155 2149ft 13kts
01-Apr-20 15:12 36.078789 -115.153021 97 2149ft 4kts
01-Apr-20 15:13 36.078578 -115.148133 94 2149ft 14kts
01-Apr-20 15:14 36.078238 -115.142422 87 2149ft 13kts
01-Apr-20 15:15 36.079073 -115.139251 47 2149ft 7kts
01-Apr-20 15:16 36.080094 -115.139067 315 2149ft 0kts

Navigation Log

Ident Type
Flight plan parsing failed, navigation log unavailable